createdAt,value
2019-04-10T00:01:31.996Z,65.29
2019-04-10T00:04:17.696Z,65.21
2019-04-10T00:07:12.770Z,65.47
2019-04-10T00:09:51.663Z,66.03
2019-04-10T00:12:38.774Z,66.14
2019-04-10T00:15:24.946Z,66.20
2019-04-10T00:18:11.936Z,66.20
2019-04-10T00:20:58.621Z,66.19
2019-04-10T00:23:44.732Z,66.59
2019-04-10T00:26:30.512Z,66.68
2019-04-10T00:29:16.444Z,66.79
2019-04-10T00:32:03.688Z,67.31
2019-04-10T00:34:49.892Z,67.46
2019-04-10T00:37:35.539Z,67.41
2019-04-10T00:40:21.521Z,67.53
2019-04-10T00:43:07.124Z,67.95
2019-04-10T00:45:53.513Z,68.11
2019-04-10T00:48:41.760Z,68.25
2019-04-10T00:51:28.388Z,68.88
2019-04-10T00:54:14.691Z,69.64
2019-04-10T00:57:01.095Z,69.69
2019-04-10T00:59:48.365Z,69.45
2019-04-10T01:02:34.510Z,69.66
2019-04-10T01:05:20.759Z,70.06
2019-04-10T01:08:06.726Z,70.34
2019-04-10T01:10:52.814Z,70.09
2019-04-10T01:13:39.037Z,69.79
2019-04-10T01:16:25.144Z,69.79
2019-04-10T01:19:12.065Z,70.62
2019-04-10T01:21:58.926Z,70.62
2019-04-10T01:24:46.047Z,71.03
2019-04-10T01:27:32.002Z,71.36
2019-04-10T01:30:18.235Z,71.36
2019-04-10T01:33:04.167Z,71.27
2019-04-10T01:35:50.845Z,71.44
2019-04-10T01:38:37.815Z,71.53
2019-04-10T01:41:23.896Z,71.41
2019-04-10T01:44:09.595Z,71.12
2019-04-10T01:46:56.965Z,71.44
2019-04-10T01:49:44.172Z,71.62
2019-04-10T01:52:31.038Z,71.62
2019-04-10T01:55:25.236Z,71.23
2019-04-10T01:58:08.637Z,71.23
2019-04-10T02:01:08.239Z,71.43
2019-04-10T02:03:54.348Z,71.66
2019-04-10T02:06:41.191Z,71.47
2019-04-10T02:09:27.657Z,71.53
2019-04-10T02:12:14.495Z,71.60
2019-04-10T02:15:00.721Z,71.44
2019-04-10T02:17:46.754Z,71.56
2019-04-10T02:20:32.362Z,71.39
2019-04-10T02:23:19.335Z,71.00
2019-04-10T02:26:07.448Z,71.20
2019-04-10T02:28:53.566Z,71.16
2019-04-10T02:31:40.277Z,71.27
2019-04-10T02:34:26.506Z,71.45
2019-04-10T02:37:12.879Z,71.21
2019-04-10T02:40:02.351Z,71.21
2019-04-10T02:42:47.350Z,71.06
2019-04-10T02:45:34.524Z,71.07
2019-04-10T02:48:21.268Z,71.34
2019-04-10T02:51:09.595Z,71.10
2019-04-10T02:53:56.154Z,71.53
2019-04-10T02:56:45.596Z,71.39
2019-04-10T02:59:31.553Z,71.75
2019-04-10T03:02:17.862Z,71.13
2019-04-10T03:05:04.631Z,71.28
2019-04-10T03:07:52.460Z,71.34
2019-04-10T03:10:44.105Z,71.41
2019-04-10T03:13:27.543Z,71.38
2019-04-10T03:16:14.561Z,71.05
2019-04-10T03:19:02.005Z,71.27
2019-04-10T03:21:47.605Z,71.73
2019-04-10T03:24:33.605Z,71.68
2019-04-10T03:27:20.546Z,71.61
2019-04-10T03:30:08.567Z,71.41
2019-04-10T03:33:15.881Z,71.33
2019-04-10T03:35:58.889Z,71.70
2019-04-10T03:38:55.406Z,71.69
2019-04-10T03:41:33.201Z,71.53
2019-04-10T03:44:19.341Z,71.53
2019-04-10T03:47:05.082Z,71.07
2019-04-10T03:49:50.626Z,71.40
2019-04-10T03:52:37.911Z,71.50
2019-04-10T03:55:25.066Z,71.11
2019-04-10T03:58:11.354Z,71.86
2019-04-10T04:00:58.488Z,71.13
2019-04-10T04:03:44.840Z,71.68
2019-04-10T04:06:31.461Z,71.25
2019-04-10T04:09:17.703Z,71.40
2019-04-10T04:12:04.462Z,71.72
2019-04-10T04:14:50.089Z,72.08
2019-04-10T04:17:36.031Z,72.03
2019-04-10T04:20:23.170Z,71.70
2019-04-10T04:23:09.596Z,71.86
2019-04-10T04:25:55.564Z,71.55
2019-04-10T04:28:41.900Z,71.61
2019-04-10T04:31:27.758Z,72.74
2019-04-10T04:34:14.225Z,72.26
2019-04-10T04:37:00.970Z,72.17
2019-04-10T04:39:47.538Z,71.93
2019-04-10T04:42:33.582Z,72.34
2019-04-10T04:45:19.534Z,71.97
2019-04-10T04:48:05.554Z,72.02
2019-04-10T04:50:52.204Z,72.41
2019-04-10T04:53:39.832Z,72.45
2019-04-10T04:56:26.157Z,71.60
2019-04-10T04:59:12.264Z,71.31
2019-04-10T05:01:58.558Z,71.73
2019-04-10T05:04:44.398Z,71.78
2019-04-10T05:07:31.074Z,71.49
2019-04-10T05:10:17.462Z,71.46
2019-04-10T05:13:04.057Z,71.44
2019-04-10T05:15:49.705Z,71.36
2019-04-10T05:18:37.259Z,71.27
2019-04-10T05:21:23.231Z,70.89
2019-04-10T05:24:09.069Z,71.08
2019-04-10T05:26:55.657Z,70.64
2019-04-10T05:29:50.583Z,69.45
2019-04-10T05:32:47.274Z,66.51
2019-04-10T05:35:34.827Z,65.41
2019-04-10T05:38:21.286Z,65.10
2019-04-10T05:41:07.098Z,65.70
2019-04-10T05:43:53.012Z,65.95
2019-04-10T05:46:38.882Z,65.95
2019-04-10T05:49:24.990Z,65.91
2019-04-10T05:52:11.119Z,65.83
2019-04-10T05:54:57.798Z,66.89
2019-04-10T05:57:44.772Z,67.92
2019-04-10T06:00:30.999Z,68.09
2019-04-10T06:03:16.583Z,66.74
2019-04-10T06:06:02.807Z,67.25
2019-04-10T06:08:49.130Z,67.18
2019-04-10T06:11:43.849Z,65.49
2019-04-10T06:14:30.428Z,65.26
2019-04-10T06:17:16.428Z,65.26
2019-04-10T06:20:03.419Z,64.65
2019-04-10T06:22:50.612Z,62.95
2019-04-10T06:25:38.918Z,62.26
2019-04-10T06:28:25.879Z,61.32
2019-04-10T06:31:12.535Z,58.21
2019-04-10T06:33:58.599Z,61.04
2019-04-10T06:36:44.095Z,61.44
2019-04-10T06:39:30.965Z,60.47
2019-04-10T06:42:17.201Z,59.61
2019-04-10T06:45:04.541Z,58.96
2019-04-10T06:47:50.864Z,59.34
2019-04-10T06:50:37.229Z,57.46
2019-04-10T06:53:23.166Z,58.01
2019-04-10T06:56:09.909Z,56.37
2019-04-10T06:58:56.742Z,56.62
2019-04-10T07:01:48.668Z,56.03
2019-04-10T07:04:43.159Z,56.91
2019-04-10T07:07:20.327Z,53.59
2019-04-10T07:10:20.635Z,54.71
2019-04-10T07:12:53.769Z,56.58
2019-04-10T07:15:42.176Z,55.27
2019-04-10T07:18:28.298Z,52.82
2019-04-10T07:21:14.726Z,52.18
2019-04-10T07:24:04.979Z,53.02
2019-04-10T07:26:49.421Z,54.62
2019-04-10T07:29:36.302Z,52.00
2019-04-10T07:32:24.273Z,54.38
2019-04-10T07:35:14.003Z,52.72
2019-04-10T07:37:59.690Z,54.75
2019-04-10T07:40:45.068Z,50.34
2019-04-10T07:43:32.063Z,49.18
2019-04-10T07:46:17.871Z,50.91
2019-04-10T07:49:03.796Z,50.95
2019-04-10T07:51:49.248Z,51.48
2019-04-10T07:54:35.100Z,49.46
2019-04-10T07:57:22.469Z,50.84
2019-04-10T08:00:13.412Z,51.47
2019-04-10T08:02:59.572Z,49.73
2019-04-10T08:05:46.047Z,50.22
2019-04-10T08:08:32.359Z,51.26
2019-04-10T08:11:21.891Z,50.92
2019-04-10T08:14:08.441Z,50.67
2019-04-10T08:16:55.608Z,52.58
2019-04-10T08:19:41.567Z,48.85
2019-04-10T08:22:28.690Z,46.68
2019-04-10T08:25:16.318Z,46.07
2019-04-10T08:28:02.803Z,49.10
2019-04-10T08:30:48.773Z,48.26
2019-04-10T08:33:36.588Z,47.43
2019-04-10T08:36:23.510Z,48.44
2019-04-10T08:39:09.339Z,47.67
2019-04-10T08:41:55.659Z,48.39
2019-04-10T08:44:42.482Z,47.21
2019-04-10T08:47:28.581Z,45.94
2019-04-10T08:50:14.780Z,46.58
2019-04-10T08:53:00.624Z,46.82
2019-04-10T08:55:47.083Z,46.92
2019-04-10T08:58:35.333Z,47.08
2019-04-10T09:01:22.956Z,48.20
2019-04-10T09:04:09.384Z,48.33
2019-04-10T09:06:55.861Z,47.07
2019-04-10T09:09:42.290Z,48.50
2019-04-10T09:12:29.605Z,47.52
2019-04-10T09:15:16.345Z,46.54
2019-04-10T09:18:03.969Z,47.70
2019-04-10T09:20:53.764Z,45.68
2019-04-10T09:23:48.255Z,47.23
2019-04-10T09:26:28.609Z,48.18
2019-04-10T09:29:16.082Z,50.71
2019-04-10T09:32:02.930Z,49.59
2019-04-10T09:34:49.882Z,47.73
2019-04-10T09:37:36.361Z,48.52
2019-04-10T09:40:24.536Z,46.26
2019-04-10T09:43:11.335Z,44.78
2019-04-10T09:45:57.648Z,47.38
2019-04-10T09:48:44.645Z,44.60
2019-04-10T09:51:31.905Z,44.95
2019-04-10T09:54:19.046Z,46.76
2019-04-10T09:57:05.643Z,46.88
2019-04-10T09:59:52.679Z,47.93
2019-04-10T10:02:39.953Z,45.69
2019-04-10T10:05:26.564Z,46.21
2019-04-10T10:08:14.218Z,45.71
2019-04-10T10:11:01.916Z,44.86
2019-04-10T10:13:48.555Z,46.16
2019-04-10T10:16:35.868Z,47.84
2019-04-10T10:19:25.877Z,48.27
2019-04-10T10:22:12.790Z,44.76
2019-04-10T10:25:00.253Z,45.06
2019-04-10T10:27:56.560Z,44.97
2019-04-10T10:30:43.954Z,46.17
2019-04-10T10:33:31.947Z,49.54
2019-04-10T10:36:18.678Z,49.53
2019-04-10T10:39:14.793Z,51.28
2019-04-10T10:42:01.415Z,48.13
2019-04-10T10:44:48.084Z,48.39
2019-04-10T10:47:36.465Z,48.90
2019-04-10T10:50:23.635Z,46.76
2019-04-10T10:53:10.305Z,47.19
2019-04-10T10:55:56.446Z,47.00
2019-04-10T10:58:43.960Z,45.55
2019-04-10T11:01:30.359Z,45.44
2019-04-10T11:04:17.450Z,44.95
2019-04-10T11:07:04.686Z,46.62
2019-04-10T11:09:51.015Z,45.66
2019-04-10T11:12:38.371Z,42.80
2019-04-10T11:15:26.271Z,42.82
2019-04-10T11:18:13.837Z,44.77
2019-04-10T11:21:08.309Z,44.84
2019-04-10T11:23:53.180Z,43.49
2019-04-10T11:26:40.026Z,41.99
2019-04-10T11:29:26.741Z,41.21
2019-04-10T11:32:14.608Z,43.35
2019-04-10T11:35:03.164Z,41.97
2019-04-10T11:37:51.400Z,42.62
2019-04-10T11:40:41.419Z,41.89
2019-04-10T11:43:30.204Z,42.75
2019-04-10T11:46:20.112Z,45.15
2019-04-10T11:49:07.493Z,43.29
2019-04-10T11:51:56.066Z,41.57
2019-04-10T11:54:43.094Z,41.33
2019-04-10T11:57:32.088Z,41.51
2019-04-10T12:00:26.763Z,43.64
2019-04-10T12:03:15.990Z,42.52
2019-04-10T12:06:04.273Z,39.83
2019-04-10T12:09:13.238Z,44.47
2019-04-10T12:11:41.527Z,39.01
2019-04-10T12:14:27.928Z,42.34
2019-04-10T12:17:16.019Z,39.90
2019-04-10T12:20:04.832Z,39.24
2019-04-10T12:22:50.807Z,41.17
2019-04-10T12:25:38.794Z,40.63
2019-04-10T12:28:25.598Z,41.23
2019-04-10T12:31:12.043Z,43.03
2019-04-10T12:34:01.358Z,43.60
2019-04-10T12:36:47.556Z,43.36
2019-04-10T12:39:33.567Z,42.20
2019-04-10T12:42:21.868Z,41.53
2019-04-10T12:45:08.365Z,39.17
2019-04-10T12:47:54.778Z,38.60
2019-04-10T12:50:41.917Z,40.25
2019-04-10T12:53:29.610Z,39.00
2019-04-10T12:56:15.771Z,40.44
2019-04-10T12:59:03.358Z,40.50
2019-04-10T13:01:50.918Z,41.82
2019-04-10T13:04:44.977Z,38.84
2019-04-10T13:07:31.677Z,40.93
2019-04-10T13:10:23.153Z,41.27
2019-04-10T13:13:13.653Z,38.85
2019-04-10T13:16:01.422Z,39.77
2019-04-10T13:18:47.248Z,40.60
2019-04-10T13:21:34.675Z,40.58
2019-04-10T13:24:21.969Z,38.62
2019-04-10T13:27:07.900Z,40.62
2019-04-10T13:29:54.390Z,38.79
2019-04-10T13:32:40.363Z,37.83
2019-04-10T13:35:26.748Z,38.15
2019-04-10T13:38:23.154Z,40.68
2019-04-10T13:41:02.331Z,40.44
2019-04-10T13:43:47.959Z,38.26
2019-04-10T13:46:34.030Z,37.57
2019-04-10T13:49:20.607Z,36.60
2019-04-10T13:52:08.035Z,38.36
2019-04-10T13:54:54.756Z,36.54
2019-04-10T13:57:42.377Z,36.90
2019-04-10T14:00:39.612Z,35.33
2019-04-10T14:03:25.946Z,34.86
2019-04-10T14:06:13.590Z,36.16
2019-04-10T14:09:15.137Z,35.54
2019-04-10T14:11:49.412Z,38.33
2019-04-10T14:14:35.110Z,39.43
2019-04-10T14:17:24.718Z,41.40
2019-04-10T14:20:15.229Z,38.22
2019-04-10T14:23:22.255Z,37.32
2019-04-10T14:26:46.810Z,38.34
2019-04-10T14:29:28.041Z,38.20
2019-04-10T14:32:23.211Z,37.50
2019-04-10T14:35:11.351Z,38.23
2019-04-10T14:37:57.305Z,38.96
2019-04-10T14:40:47.233Z,37.77
2019-04-10T14:43:32.891Z,37.96
2019-04-10T14:46:18.836Z,35.98
2019-04-10T14:49:05.201Z,35.64
2019-04-10T14:51:50.693Z,38.59
2019-04-10T14:54:37.548Z,40.05
2019-04-10T14:57:23.584Z,40.30
2019-04-10T15:00:15.467Z,40.43
2019-04-10T15:03:02.226Z,40.77
2019-04-10T15:05:52.299Z,40.56
2019-04-10T15:08:36.313Z,42.09
2019-04-10T15:11:22.486Z,42.44
2019-04-10T15:14:08.933Z,43.31
2019-04-10T15:17:01.057Z,41.54
2019-04-10T15:19:42.659Z,40.87
2019-04-10T15:22:29.394Z,40.44
2019-04-10T15:25:15.600Z,40.37
2019-04-10T15:28:02.325Z,41.52
2019-04-10T15:30:48.317Z,40.13
2019-04-10T15:33:33.816Z,41.18
2019-04-10T15:36:19.997Z,42.37
2019-04-10T15:39:07.140Z,41.87
2019-04-10T15:41:53.629Z,42.54
2019-04-10T15:44:40.711Z,41.92
2019-04-10T15:47:27.098Z,41.21
2019-04-10T15:50:15.794Z,41.76
2019-04-10T15:53:02.222Z,41.33
2019-04-10T15:55:49.599Z,40.86
2019-04-10T15:58:35.587Z,41.38
2019-04-10T16:01:21.643Z,42.15
2019-04-10T16:04:08.620Z,43.50
2019-04-10T16:06:55.975Z,43.22
2019-04-10T16:09:47.424Z,42.51
2019-04-10T16:12:30.513Z,43.09
2019-04-10T16:15:17.325Z,43.55
2019-04-10T16:18:13.717Z,42.45
2019-04-10T16:20:59.966Z,42.94
2019-04-10T16:23:50.407Z,42.86
2019-04-10T16:26:36.469Z,42.35
2019-04-10T16:29:25.229Z,43.82
2019-04-10T16:32:12.720Z,42.63
2019-04-10T16:34:58.877Z,43.71
2019-04-10T16:37:44.921Z,42.59
2019-04-10T16:40:31.887Z,43.15
2019-04-10T16:43:18.064Z,43.42
2019-04-10T16:46:04.814Z,42.98
2019-04-10T16:48:50.533Z,42.12
2019-04-10T16:51:37.126Z,42.44
2019-04-10T16:54:22.952Z,42.74
2019-04-10T16:57:09.985Z,42.15
2019-04-10T16:59:57.350Z,42.85
2019-04-10T17:02:44.355Z,43.22
2019-04-10T17:05:33.276Z,43.12
2019-04-10T17:08:19.626Z,42.98
2019-04-10T17:11:07.205Z,42.42
2019-04-10T17:13:53.021Z,42.93
2019-04-10T17:16:39.946Z,43.39
2019-04-10T17:19:27.434Z,42.59
2019-04-10T17:22:14.465Z,42.00
2019-04-10T17:25:02.087Z,42.15
2019-04-10T17:27:48.134Z,42.82
2019-04-10T17:30:33.929Z,42.35
2019-04-10T17:33:20.685Z,41.31
2019-04-10T17:36:07.718Z,40.62
2019-04-10T17:38:53.656Z,41.21
2019-04-10T17:41:39.739Z,41.24
2019-04-10T17:44:25.658Z,40.71
2019-04-10T17:47:12.595Z,40.93
2019-04-10T17:50:00.149Z,40.63
2019-04-10T17:52:47.193Z,41.67
2019-04-10T17:55:33.680Z,41.16
2019-04-10T17:58:21.285Z,41.96
2019-04-10T18:01:10.746Z,41.24
2019-04-10T18:04:00.270Z,42.89
2019-04-10T18:06:59.555Z,42.16
2019-04-10T18:09:46.679Z,43.44
2019-04-10T18:12:34.919Z,42.61
2019-04-10T18:15:21.978Z,42.95
2019-04-10T18:18:08.290Z,43.71
2019-04-10T18:20:54.123Z,43.62
2019-04-10T18:23:41.822Z,44.07
2019-04-10T18:26:27.841Z,42.89
2019-04-10T18:29:14.846Z,44.18
2019-04-10T18:32:05.495Z,43.76
2019-04-10T18:34:52.156Z,44.43
2019-04-10T18:37:39.171Z,44.69
2019-04-10T18:40:25.789Z,45.02
2019-04-10T18:43:11.956Z,46.87
2019-04-10T18:46:07.889Z,46.60
2019-04-10T18:48:47.175Z,46.76
2019-04-10T18:51:34.077Z,47.24
2019-04-10T18:54:22.945Z,47.14
2019-04-10T18:57:09.380Z,47.70
2019-04-10T19:00:15.388Z,47.81
2019-04-10T19:03:32.816Z,48.04
2019-04-10T19:06:24.799Z,48.41
2019-04-10T19:09:19.409Z,48.66
2019-04-10T19:11:58.487Z,48.74
2019-04-10T19:14:46.626Z,49.02
2019-04-10T19:17:33.295Z,49.66
2019-04-10T19:20:22.842Z,49.74
2019-04-10T19:23:09.695Z,49.81
2019-04-10T19:25:56.732Z,49.96
2019-04-10T19:28:45.097Z,50.10
2019-04-10T19:31:33.358Z,50.03
2019-04-10T19:34:18.775Z,51.00
2019-04-10T19:37:06.132Z,50.89
2019-04-10T19:39:52.357Z,51.34
2019-04-10T19:42:39.625Z,51.25
2019-04-10T19:45:26.298Z,51.30
2019-04-10T19:48:12.383Z,51.04
2019-04-10T19:50:58.059Z,51.34
2019-04-10T19:53:44.017Z,51.46
2019-04-10T19:56:30.813Z,51.38
2019-04-10T19:59:16.739Z,51.82
2019-04-10T20:02:03.390Z,52.73
2019-04-10T20:04:50.576Z,51.93
2019-04-10T20:07:37.529Z,51.85
2019-04-10T20:10:24.003Z,52.20
2019-04-10T20:13:10.340Z,52.38
2019-04-10T20:15:58.637Z,51.91
2019-04-10T20:18:45.259Z,52.88
2019-04-10T20:21:32.843Z,52.98
2019-04-10T20:24:18.890Z,52.54
2019-04-10T20:27:07.779Z,52.54
2019-04-10T20:29:55.162Z,53.43
2019-04-10T20:32:41.871Z,53.43
2019-04-10T20:35:28.621Z,54.16
2019-04-10T20:38:15.469Z,54.16
2019-04-10T20:41:02.430Z,53.41
2019-04-10T20:43:48.376Z,54.03
2019-04-10T20:46:34.307Z,54.24
2019-04-10T20:49:20.418Z,54.16
2019-04-10T20:52:06.491Z,54.57
2019-04-10T20:54:53.149Z,55.06
2019-04-10T20:57:39.494Z,54.90
2019-04-10T21:00:41.219Z,54.95
2019-04-10T21:03:27.394Z,54.95
2019-04-10T21:06:15.604Z,55.42
2019-04-10T21:09:05.354Z,55.14
2019-04-10T21:12:00.501Z,55.06
2019-04-10T21:14:38.652Z,55.57
2019-04-10T21:17:24.997Z,55.31
2019-04-10T21:20:13.152Z,55.21
2019-04-10T21:22:58.485Z,55.70
2019-04-10T21:25:45.619Z,55.45
2019-04-10T21:28:32.082Z,55.40
2019-04-10T21:31:37.168Z,55.29
2019-04-10T21:34:28.660Z,55.44
2019-04-10T21:37:14.353Z,55.41
2019-04-10T21:40:00.484Z,55.37
2019-04-10T21:42:47.615Z,55.99
2019-04-10T21:45:34.882Z,55.54
2019-04-10T21:48:22.376Z,55.18
2019-04-10T21:51:08.805Z,55.19
2019-04-10T21:53:55.881Z,55.08
2019-04-10T21:56:43.112Z,55.16
2019-04-10T21:59:29.244Z,56.22
2019-04-10T22:02:15.348Z,55.69
2019-04-10T22:05:03.872Z,55.85
2019-04-10T22:08:07.135Z,55.52
2019-04-10T22:10:52.828Z,55.75
2019-04-10T22:13:39.854Z,55.89
2019-04-10T22:16:26.480Z,55.26
2019-04-10T22:19:12.281Z,55.64
2019-04-10T22:21:58.463Z,55.94
2019-04-10T22:24:44.066Z,55.94
2019-04-10T22:27:29.765Z,56.21
2019-04-10T22:30:16.937Z,56.64
2019-04-10T22:33:03.300Z,56.81
2019-04-10T22:35:50.392Z,56.81
2019-04-10T22:38:37.800Z,56.81
2019-04-10T22:41:28.518Z,56.84
2019-04-10T22:44:11.763Z,57.06
2019-04-10T22:46:58.759Z,57.34
2019-04-10T22:49:45.082Z,57.62
2019-04-10T22:52:32.377Z,57.70
2019-04-10T22:55:19.516Z,58.06
2019-04-10T22:58:05.568Z,58.48
2019-04-10T23:00:51.123Z,58.48
2019-04-10T23:03:37.402Z,58.12
2019-04-10T23:06:23.060Z,58.54
2019-04-10T23:09:10.447Z,58.98
2019-04-10T23:11:56.741Z,58.34
2019-04-10T23:14:42.793Z,58.75
2019-04-10T23:17:28.587Z,58.75
2019-04-10T23:20:16.496Z,59.03
2019-04-10T23:23:03.076Z,59.03
2019-04-10T23:25:49.043Z,59.39
2019-04-10T23:28:35.783Z,59.39
2019-04-10T23:31:21.674Z,59.97
2019-04-10T23:34:08.367Z,60.01
2019-04-10T23:36:54.761Z,60.70
2019-04-10T23:39:40.605Z,60.70
2019-04-10T23:42:28.236Z,60.92
2019-04-10T23:45:15.507Z,61.25
2019-04-10T23:48:01.709Z,61.30
2019-04-10T23:50:48.293Z,61.15
2019-04-10T23:53:38.364Z,61.68
2019-04-10T23:56:24.679Z,61.68
2019-04-10T23:59:10.721Z,62.13
